Kendall, Washington
Current Conditions -  °F | °C
As of 3:00 PM on Tuesday 27 Jan 2015 (Local Time) from CYXX Reporting Station
Broken Clouds Broken Clouds  
Wind Chill: 52°   Ceiling: 2000
Heat Index: 52°   Visibility: 15mi
Dew Point: 50°   Wind: 10mph
Humidity: 94%   Direction: 210°SSW
Pressure: 30.08"   Gusts: NA
Location:  48.8512°N, 121.903°W
Report Text: CYXX 272300Z 21009KT 15SM FEW005 SCT010 BKN020 BKN035 11/10 A3008 RMK SF2CU2SC2SC1 OCNL -SHRA SLP188
Loading
Personal Weather Stations






























Interactive Weather Map New forecast layout! Learn more

10-Day Weather Forecast

Advertisements
Track Severe Weather on mobile